createdAt,value
2022-12-18T00:01:36.962Z,40.13
2022-12-18T00:04:10.053Z,42.50
2022-12-18T00:06:38.785Z,39.33
2022-12-18T00:09:08.795Z,44.00
2022-12-18T00:11:37.326Z,42.17
2022-12-18T00:14:06.280Z,43.57
2022-12-18T00:16:36.557Z,40.03
2022-12-18T00:19:08.772Z,46.93
2022-12-18T00:21:37.253Z,40.63
2022-12-18T00:24:06.734Z,40.37
2022-12-18T00:26:38.041Z,38.90
2022-12-18T00:29:09.461Z,41.97
2022-12-18T00:31:39.473Z,37.83
2022-12-18T00:34:08.505Z,39.90
2022-12-18T00:36:37.376Z,45.10
2022-12-18T00:39:07.664Z,45.47
2022-12-18T00:41:55.016Z,39.77
2022-12-18T00:44:23.613Z,37.17
2022-12-18T00:46:53.274Z,34.67
2022-12-18T00:49:22.981Z,40.87
2022-12-18T00:51:52.703Z,37.83
2022-12-18T00:54:23.823Z,42.27
2022-12-18T00:56:54.139Z,36.33
2022-12-18T00:59:22.875Z,36.97
2022-12-18T01:01:52.915Z,36.77
2022-12-18T01:04:22.461Z,39.10
2022-12-18T01:06:51.184Z,37.30
2022-12-18T01:09:19.668Z,40.10
2022-12-18T01:11:48.249Z,38.30
2022-12-18T01:14:18.268Z,36.23
2022-12-18T01:16:46.804Z,39.30
2022-12-18T01:19:15.350Z,40.13
2022-12-18T01:21:43.880Z,38.03
2022-12-18T01:24:14.464Z,32.60
2022-12-18T01:26:43.868Z,33.77
2022-12-18T01:29:12.398Z,34.10
2022-12-18T01:31:42.385Z,34.53
2022-12-18T01:34:12.019Z,34.63
2022-12-18T01:36:42.487Z,37.73
2022-12-18T01:39:14.455Z,33.97
2022-12-18T01:42:02.373Z,37.00
2022-12-18T01:45:24.428Z,32.53
2022-12-18T01:47:56.367Z,31.97
2022-12-18T01:50:27.681Z,36.47
2022-12-18T01:53:00.404Z,37.47
2022-12-18T01:55:33.408Z,30.97
2022-12-18T01:58:03.333Z,39.50
2022-12-18T02:00:32.746Z,31.30
2022-12-18T02:03:02.964Z,30.93
2022-12-18T02:05:46.008Z,34.17
2022-12-18T02:08:21.589Z,34.43
2022-12-18T02:11:00.358Z,33.43
2022-12-18T02:13:38.812Z,34.40
2022-12-18T02:16:20.625Z,34.03
2022-12-18T02:18:56.826Z,33.60
2022-12-18T02:21:33.857Z,36.60
2022-12-18T02:24:17.368Z,36.57
2022-12-18T02:26:50.997Z,29.93
2022-12-18T02:29:28.526Z,32.77
2022-12-18T02:32:02.852Z,30.27
2022-12-18T02:34:35.142Z,34.77
2022-12-18T02:37:08.300Z,34.40
2022-12-18T02:39:39.870Z,31.93
2022-12-18T02:42:10.580Z,33.07
2022-12-18T02:44:45.681Z,32.53
2022-12-18T02:47:19.080Z,34.40
2022-12-18T02:49:57.517Z,31.80
2022-12-18T02:52:34.000Z,32.40
2022-12-18T02:55:16.388Z,30.37
2022-12-18T02:57:53.734Z,33.33
2022-12-18T03:00:35.202Z,31.80
2022-12-18T03:03:09.813Z,35.57
2022-12-18T03:05:44.015Z,40.90
2022-12-18T03:08:19.980Z,32.77
2022-12-18T03:10:56.805Z,34.00
2022-12-18T03:13:32.598Z,31.03
2022-12-18T03:16:03.811Z,34.40
2022-12-18T03:18:38.508Z,35.67
2022-12-18T03:21:10.184Z,28.70
2022-12-18T03:23:45.872Z,35.93
2022-12-18T03:26:19.804Z,32.83
2022-12-18T03:28:53.790Z,30.43
2022-12-18T03:31:25.418Z,29.30
2022-12-18T03:33:56.674Z,35.20
2022-12-18T03:36:32.413Z,33.73
2022-12-18T03:39:01.555Z,35.43
2022-12-18T03:41:34.771Z,35.23
2022-12-18T03:44:31.473Z,32.53
2022-12-18T03:47:09.477Z,26.80
2022-12-18T03:49:47.029Z,31.40
2022-12-18T03:52:22.669Z,32.53
2022-12-18T03:54:52.000Z,35.13
2022-12-18T03:57:23.731Z,33.60
2022-12-18T03:59:59.865Z,34.30
2022-12-18T04:02:34.083Z,32.30
2022-12-18T04:05:07.925Z,35.10
2022-12-18T04:07:40.881Z,33.00
2022-12-18T04:10:14.848Z,32.63
2022-12-18T04:12:43.846Z,30.20
2022-12-18T04:15:16.206Z,32.53
2022-12-18T04:17:51.063Z,37.23
2022-12-18T04:20:23.269Z,31.33
2022-12-18T04:22:52.146Z,34.77
2022-12-18T04:25:21.895Z,31.97
2022-12-18T04:28:07.706Z,32.30
2022-12-18T04:30:39.162Z,31.93
2022-12-18T04:33:11.797Z,32.30
2022-12-18T04:35:41.198Z,32.87
2022-12-18T04:38:10.556Z,31.50
2022-12-18T04:40:41.165Z,33.43
2022-12-18T04:43:18.541Z,29.87
2022-12-18T04:45:48.396Z,34.40
2022-12-18T04:48:17.224Z,28.73
2022-12-18T04:50:46.004Z,31.53
2022-12-18T04:53:14.774Z,28.70
2022-12-18T04:55:43.261Z,29.83
2022-12-18T04:58:11.972Z,30.57
2022-12-18T05:00:40.553Z,31.70
2022-12-18T05:03:10.626Z,30.03
2022-12-18T05:05:39.270Z,30.70
2022-12-18T05:08:07.719Z,31.27
2022-12-18T05:10:38.497Z,25.10
2022-12-18T05:13:07.233Z,29.77
2022-12-18T05:15:36.395Z,31.87
2022-12-18T05:18:05.999Z,34.80
2022-12-18T05:20:36.773Z,34.27
2022-12-18T05:23:05.364Z,31.83
2022-12-18T05:25:34.000Z,31.63
2022-12-18T05:28:02.538Z,28.67
2022-12-18T05:30:31.326Z,30.67
2022-12-18T05:32:59.820Z,30.50
2022-12-18T05:35:28.447Z,32.47
2022-12-18T05:37:59.064Z,29.53
2022-12-18T05:40:28.269Z,28.40
2022-12-18T05:42:56.781Z,30.10
2022-12-18T05:45:25.215Z,27.73
2022-12-18T05:47:53.677Z,26.00
2022-12-18T05:50:22.334Z,31.47
2022-12-18T05:52:51.003Z,26.23
2022-12-18T05:55:21.178Z,27.90
2022-12-18T05:57:49.539Z,26.97
2022-12-18T06:00:18.912Z,30.47
2022-12-18T06:02:49.759Z,27.73
2022-12-18T06:05:18.572Z,27.37
2022-12-18T06:07:46.922Z,27.70
2022-12-18T06:10:15.534Z,31.20
2022-12-18T06:12:46.505Z,29.73
2022-12-18T06:15:16.360Z,29.63
2022-12-18T06:17:45.595Z,25.93
2022-12-18T06:20:14.922Z,29.00
2022-12-18T06:22:44.115Z,29.53
2022-12-18T06:25:12.655Z,30.70
2022-12-18T06:27:42.330Z,28.90
2022-12-18T06:30:14.417Z,28.10
2022-12-18T06:32:43.772Z,28.00
2022-12-18T06:35:12.414Z,30.00
2022-12-18T06:37:40.982Z,27.27
2022-12-18T06:40:10.411Z,30.47
2022-12-18T06:42:38.914Z,27.67
2022-12-18T06:45:08.560Z,32.13
2022-12-18T06:47:38.522Z,30.10
2022-12-18T06:50:07.933Z,30.07
2022-12-18T06:52:38.019Z,28.33
2022-12-18T06:55:08.149Z,29.37
2022-12-18T06:57:36.763Z,31.73
2022-12-18T07:00:08.917Z,27.90
2022-12-18T07:02:39.509Z,31.10
2022-12-18T07:05:11.126Z,28.47
2022-12-18T07:07:39.809Z,29.13
2022-12-18T07:10:08.736Z,33.17
2022-12-18T07:12:37.699Z,33.63
2022-12-18T07:15:07.641Z,31.03
2022-12-18T07:17:36.841Z,31.40
2022-12-18T07:20:07.727Z,34.13
2022-12-18T07:22:36.460Z,34.80
2022-12-18T07:25:05.535Z,30.63
2022-12-18T07:27:34.163Z,30.27
2022-12-18T07:30:03.024Z,38.20
2022-12-18T07:32:32.956Z,31.63
2022-12-18T07:35:01.913Z,27.40
2022-12-18T07:37:31.786Z,31.90
2022-12-18T07:40:00.265Z,36.50
2022-12-18T07:42:36.094Z,35.17
2022-12-18T07:45:06.355Z,32.03
2022-12-18T07:47:36.853Z,27.07
2022-12-18T07:50:06.408Z,30.93
2022-12-18T07:52:37.045Z,30.43
2022-12-18T07:55:06.953Z,29.20
2022-12-18T07:57:54.313Z,36.77
2022-12-18T08:00:25.462Z,29.37
2022-12-18T08:02:54.477Z,30.40
2022-12-18T08:05:23.674Z,31.93
2022-12-18T08:07:53.821Z,34.27
2022-12-18T08:10:23.240Z,28.93
2022-12-18T08:12:53.019Z,29.77
2022-12-18T08:15:21.811Z,31.07
2022-12-18T08:17:50.526Z,34.13
2022-12-18T08:20:19.498Z,27.57
2022-12-18T08:22:48.112Z,28.90
2022-12-18T08:25:18.467Z,33.40
2022-12-18T08:27:47.059Z,31.83
2022-12-18T08:30:16.337Z,27.73
2022-12-18T08:32:44.788Z,32.23
2022-12-18T08:35:15.557Z,29.17
2022-12-18T08:37:47.145Z,34.00
2022-12-18T08:40:17.464Z,27.20
2022-12-18T08:43:03.545Z,27.20
2022-12-18T08:45:32.400Z,30.57
2022-12-18T08:48:01.192Z,28.07
2022-12-18T08:50:29.926Z,32.77
2022-12-18T08:52:58.701Z,31.83
2022-12-18T08:55:28.887Z,29.97
2022-12-18T08:57:57.910Z,30.33
2022-12-18T09:00:26.425Z,30.30
2022-12-18T09:02:55.461Z,26.70
2022-12-18T09:05:24.288Z,29.33
2022-12-18T09:07:53.748Z,30.13
2022-12-18T09:10:22.315Z,30.33
2022-12-18T09:12:53.107Z,29.00
2022-12-18T09:15:21.844Z,28.07
2022-12-18T09:17:51.191Z,29.33
2022-12-18T09:20:19.937Z,30.07
2022-12-18T09:22:48.613Z,30.10
2022-12-18T09:25:17.324Z,28.07
2022-12-18T09:27:49.112Z,28.03
2022-12-18T09:30:19.130Z,29.40
2022-12-18T09:32:48.542Z,28.97
2022-12-18T09:35:19.560Z,25.80
2022-12-18T09:37:48.299Z,24.27
2022-12-18T09:40:19.089Z,35.07
2022-12-18T09:42:54.473Z,30.03
2022-12-18T09:45:26.056Z,26.13
2022-12-18T09:47:57.316Z,33.07
2022-12-18T09:50:32.469Z,25.97
2022-12-18T09:53:06.929Z,32.13
2022-12-18T09:55:40.290Z,30.93
2022-12-18T09:58:17.887Z,24.63
2022-12-18T10:00:48.043Z,26.60
2022-12-18T10:03:17.840Z,27.23
2022-12-18T10:05:57.258Z,29.20
2022-12-18T10:08:36.115Z,25.13
2022-12-18T10:11:23.653Z,28.87
2022-12-18T10:13:59.039Z,31.23
2022-12-18T10:16:39.294Z,28.67
2022-12-18T10:19:23.008Z,25.90
2022-12-18T10:22:00.648Z,29.60
2022-12-18T10:24:36.225Z,28.40
2022-12-18T10:27:15.996Z,28.67
2022-12-18T10:29:46.136Z,23.47
2022-12-18T10:32:19.455Z,27.63
2022-12-18T10:34:50.648Z,27.83
2022-12-18T10:37:26.667Z,26.80
2022-12-18T10:40:14.309Z,23.40
2022-12-18T10:42:47.222Z,28.03
2022-12-18T10:45:17.873Z,28.37
2022-12-18T10:47:50.781Z,23.87
2022-12-18T10:50:53.964Z,26.77
2022-12-18T10:53:24.287Z,29.00
2022-12-18T10:55:56.107Z,27.17
2022-12-18T10:58:32.436Z,29.50
2022-12-18T11:01:09.057Z,23.50
2022-12-18T11:03:41.435Z,26.87
2022-12-18T11:06:12.775Z,25.77
2022-12-18T11:08:43.161Z,22.00
2022-12-18T11:11:23.108Z,26.43
2022-12-18T11:14:01.625Z,24.00
2022-12-18T11:16:32.000Z,23.57
2022-12-18T11:19:17.930Z,24.93
2022-12-18T11:21:46.727Z,27.40
2022-12-18T11:24:25.122Z,25.60
2022-12-18T11:26:59.338Z,28.03
2022-12-18T11:29:35.035Z,26.97
2022-12-18T11:32:29.508Z,26.10
2022-12-18T11:35:05.424Z,28.10
2022-12-18T11:37:35.246Z,26.50
2022-12-18T11:40:10.520Z,27.27
2022-12-18T11:42:46.688Z,26.03
2022-12-18T11:45:37.570Z,24.87
2022-12-18T11:48:13.742Z,25.03
2022-12-18T11:50:51.954Z,26.07
2022-12-18T11:53:21.515Z,25.93
2022-12-18T11:56:00.668Z,30.40
2022-12-18T11:58:45.894Z,23.30
2022-12-18T12:01:26.834Z,25.63
2022-12-18T12:05:03.148Z,23.87
2022-12-18T12:07:48.398Z,25.63
2022-12-18T12:10:35.723Z,25.33
2022-12-18T12:13:26.191Z,25.00
2022-12-18T12:16:04.992Z,29.77
2022-12-18T12:18:46.207Z,25.03
2022-12-18T12:21:23.780Z,28.80
2022-12-18T12:24:02.190Z,24.10
2022-12-18T12:26:45.154Z,23.23
2022-12-18T12:29:28.980Z,30.23
2022-12-18T12:32:10.511Z,27.00
2022-12-18T12:34:48.782Z,23.87
2022-12-18T12:37:31.295Z,25.40
2022-12-18T12:40:15.265Z,25.60
2022-12-18T12:43:16.577Z,26.50
2022-12-18T12:45:51.625Z,26.27
2022-12-18T12:48:30.015Z,28.60
2022-12-18T12:51:01.070Z,28.67
2022-12-18T12:53:36.906Z,27.97
2022-12-18T12:56:11.114Z,25.80
2022-12-18T12:58:48.979Z,29.33
2022-12-18T13:01:27.762Z,29.87
2022-12-18T13:04:03.585Z,29.00
2022-12-18T13:06:45.144Z,26.83
2022-12-18T13:09:15.377Z,27.43
2022-12-18T13:12:05.425Z,28.43
2022-12-18T13:14:36.565Z,23.73
2022-12-18T13:17:34.097Z,26.50
2022-12-18T13:20:12.233Z,32.93
2022-12-18T13:22:46.103Z,31.00
2022-12-18T13:25:36.756Z,26.13
2022-12-18T13:28:15.050Z,26.13
2022-12-18T13:30:46.480Z,30.33
2022-12-18T13:34:24.439Z,26.37
2022-12-18T13:36:40.092Z,30.43
2022-12-18T13:39:36.235Z,29.73
2022-12-18T13:42:58.653Z,29.63
2022-12-18T13:46:00.747Z,28.70
2022-12-18T13:48:31.528Z,24.17
2022-12-18T13:51:04.463Z,32.90
2022-12-18T13:53:36.936Z,25.83
2022-12-18T13:56:06.357Z,35.13
2022-12-18T13:58:38.368Z,27.30
2022-12-18T14:01:24.250Z,31.50
2022-12-18T14:03:53.010Z,26.30
2022-12-18T14:06:22.958Z,32.90
2022-12-18T14:08:52.458Z,29.27
2022-12-18T14:11:26.784Z,28.40
2022-12-18T14:13:55.633Z,32.50
2022-12-18T14:16:26.129Z,26.93
2022-12-18T14:18:59.140Z,27.23
2022-12-18T14:21:40.729Z,29.03
2022-12-18T14:24:19.030Z,32.83
2022-12-18T14:26:50.395Z,32.47
2022-12-18T14:29:27.812Z,32.93
2022-12-18T14:32:18.171Z,30.70
2022-12-18T14:34:48.950Z,29.87
2022-12-18T14:37:20.345Z,28.83
2022-12-18T14:39:57.768Z,29.13
2022-12-18T14:42:30.914Z,32.97
2022-12-18T14:45:41.422Z,29.87
2022-12-18T14:48:22.957Z,29.47
2022-12-18T14:51:18.029Z,26.63
2022-12-18T14:53:53.967Z,31.47
2022-12-18T14:56:26.348Z,30.97
2022-12-18T14:58:57.750Z,38.00
2022-12-18T15:01:32.132Z,28.63
2022-12-18T15:04:07.238Z,34.97
2022-12-18T15:06:39.322Z,31.23
2022-12-18T15:09:26.325Z,29.63
2022-12-18T15:11:59.055Z,32.83
2022-12-18T15:14:42.113Z,30.40
2022-12-18T15:17:20.303Z,49.17
2022-12-18T15:19:53.641Z,33.73
2022-12-18T15:22:26.786Z,32.43
2022-12-18T15:24:56.664Z,33.83
2022-12-18T15:27:34.358Z,31.13
2022-12-18T15:30:19.116Z,30.70
2022-12-18T15:32:47.938Z,37.37
2022-12-18T15:35:21.850Z,32.30
2022-12-18T15:37:51.049Z,37.47
2022-12-18T15:40:21.544Z,36.43
2022-12-18T15:43:09.263Z,30.80
2022-12-18T15:45:37.863Z,29.23
2022-12-18T15:48:17.673Z,35.93
2022-12-18T15:50:47.513Z,37.20
2022-12-18T15:53:16.619Z,33.17
2022-12-18T15:56:02.472Z,36.43
2022-12-18T15:58:31.934Z,36.33
2022-12-18T16:01:02.028Z,37.27
2022-12-18T16:03:31.323Z,30.93
2022-12-18T16:06:04.187Z,31.40
2022-12-18T16:08:36.212Z,37.63
2022-12-18T16:11:04.730Z,35.43
2022-12-18T16:13:33.223Z,37.70
2022-12-18T16:16:01.944Z,36.43
2022-12-18T16:18:30.573Z,37.70
2022-12-18T16:21:00.763Z,35.03
2022-12-18T16:23:29.564Z,37.63
2022-12-18T16:25:58.040Z,35.37
2022-12-18T16:28:26.556Z,37.07
2022-12-18T16:30:55.136Z,36.27
2022-12-18T16:33:23.822Z,39.03
2022-12-18T16:35:54.699Z,38.10
2022-12-18T16:38:25.057Z,38.20
2022-12-18T16:41:11.193Z,36.33
2022-12-18T16:43:40.161Z,35.97
2022-12-18T16:46:09.092Z,31.87
2022-12-18T16:48:38.939Z,34.27
2022-12-18T16:51:07.784Z,35.57
2022-12-18T16:53:37.851Z,35.97
2022-12-18T16:56:07.074Z,37.83
2022-12-18T16:58:35.618Z,33.70
2022-12-18T17:01:12.767Z,34.10
2022-12-18T17:03:42.272Z,36.03
2022-12-18T17:06:13.119Z,40.50
2022-12-18T17:08:43.151Z,36.90
2022-12-18T17:11:12.054Z,33.03
2022-12-18T17:13:41.268Z,39.20
2022-12-18T17:16:11.151Z,36.83
2022-12-18T17:18:39.796Z,42.60
2022-12-18T17:21:09.884Z,36.90
2022-12-18T17:23:39.349Z,40.30
2022-12-18T17:26:11.771Z,40.27
2022-12-18T17:28:41.766Z,42.20
2022-12-18T17:31:14.245Z,39.03
2022-12-18T17:33:43.452Z,43.80
2022-12-18T17:36:13.772Z,37.27
2022-12-18T17:38:43.493Z,37.30
2022-12-18T17:41:14.376Z,39.37
2022-12-18T17:43:45.944Z,37.57
2022-12-18T17:46:16.917Z,43.40
2022-12-18T17:48:45.628Z,37.23
2022-12-18T17:51:15.464Z,43.73
2022-12-18T17:53:45.067Z,40.43
2022-12-18T17:56:17.056Z,40.90
2022-12-18T17:58:46.125Z,38.23
2022-12-18T18:01:16.384Z,41.83
2022-12-18T18:03:46.049Z,35.93
2022-12-18T18:06:18.395Z,36.60
2022-12-18T18:08:50.317Z,44.20
2022-12-18T18:11:40.835Z,41.23
2022-12-18T18:14:14.680Z,40.30
2022-12-18T18:16:45.224Z,40.90
2022-12-18T18:19:15.825Z,44.27
2022-12-18T18:21:45.829Z,37.73
2022-12-18T18:24:16.630Z,40.97
2022-12-18T18:26:48.310Z,45.43
2022-12-18T18:29:19.102Z,40.17
2022-12-18T18:31:48.774Z,41.37
2022-12-18T18:34:18.601Z,46.73
2022-12-18T18:36:47.851Z,42.70
2022-12-18T18:39:16.948Z,43.53
2022-12-18T18:41:48.670Z,43.27
2022-12-18T18:44:18.045Z,40.73
2022-12-18T18:46:46.800Z,41.37
2022-12-18T18:49:16.358Z,46.43
2022-12-18T18:51:44.925Z,39.33
2022-12-18T18:54:13.517Z,41.90
2022-12-18T18:59:32.240Z,38.90
2022-12-18T19:02:04.735Z,43.23
2022-12-18T19:04:34.635Z,43.70
2022-12-18T19:07:03.524Z,45.93
2022-12-18T19:09:32.651Z,40.90
2022-12-18T19:12:18.734Z,49.50
2022-12-18T19:14:49.640Z,43.33
2022-12-18T19:17:18.527Z,43.60
2022-12-18T19:19:47.995Z,47.93
2022-12-18T19:22:16.764Z,46.07
2022-12-18T19:24:45.594Z,46.10
2022-12-18T19:27:14.952Z,50.97
2022-12-18T19:29:43.730Z,52.00
2022-12-18T19:32:13.906Z,47.63
2022-12-18T19:34:42.719Z,51.73
2022-12-18T19:37:13.861Z,44.33
2022-12-18T19:39:42.509Z,44.27
2022-12-18T19:42:11.525Z,44.37
2022-12-18T19:44:40.731Z,45.93
2022-12-18T19:47:09.935Z,41.23
2022-12-18T19:49:40.534Z,42.90
2022-12-18T19:52:09.921Z,47.53
2022-12-18T19:54:38.591Z,46.43
2022-12-18T19:57:08.212Z,46.17
2022-12-18T19:59:37.163Z,44.00
2022-12-18T20:02:12.506Z,48.30
2022-12-18T20:04:42.982Z,47.93
2022-12-18T20:07:11.970Z,43.53
2022-12-18T20:09:41.093Z,53.23
2022-12-18T20:12:09.576Z,52.20
2022-12-18T20:14:38.359Z,49.23
2022-12-18T20:17:07.373Z,49.10
2022-12-18T20:19:36.115Z,49.07
2022-12-18T20:22:06.632Z,47.40
2022-12-18T20:24:35.246Z,57.93
2022-12-18T20:27:04.018Z,51.50
2022-12-18T20:29:32.558Z,53.17
2022-12-18T20:32:01.315Z,53.70
2022-12-18T20:34:29.862Z,51.60
2022-12-18T20:36:59.521Z,52.13
2022-12-18T20:39:31.054Z,48.23
2022-12-18T20:42:02.738Z,59.00
2022-12-18T20:44:31.559Z,50.07
2022-12-18T20:47:02.336Z,53.43
2022-12-18T20:49:37.643Z,54.90
2022-12-18T20:52:08.431Z,54.67
2022-12-18T20:54:38.960Z,54.33
2022-12-18T20:57:07.954Z,56.73
2022-12-18T20:59:37.017Z,49.80
2022-12-18T21:02:06.071Z,56.50
2022-12-18T21:04:35.324Z,50.93
2022-12-18T21:07:04.089Z,53.70
2022-12-18T21:09:38.142Z,52.63
2022-12-18T21:12:36.539Z,52.27
2022-12-18T21:15:12.933Z,54.97
2022-12-18T21:17:44.633Z,57.60
2022-12-18T21:20:17.362Z,54.63
2022-12-18T21:22:47.311Z,60.43
2022-12-18T21:25:16.327Z,58.50
2022-12-18T21:27:46.411Z,58.30
2022-12-18T21:30:16.110Z,57.93
2022-12-18T21:32:45.042Z,58.17
2022-12-18T21:35:13.931Z,55.30
2022-12-18T21:37:42.612Z,59.53
2022-12-18T21:40:12.593Z,61.20
2022-12-18T21:42:58.933Z,60.47
2022-12-18T21:45:28.877Z,59.17
2022-12-18T21:47:57.675Z,58.63
2022-12-18T21:50:26.794Z,63.97
2022-12-18T21:52:55.716Z,59.00
2022-12-18T21:55:24.726Z,59.67
2022-12-18T21:57:56.090Z,53.90
2022-12-18T22:00:25.261Z,61.10
2022-12-18T22:03:05.652Z,67.07
2022-12-18T22:05:44.583Z,60.67
2022-12-18T22:08:13.894Z,62.97
2022-12-18T22:10:42.453Z,64.43
2022-12-18T22:13:11.637Z,61.80
2022-12-18T22:15:40.599Z,58.00
2022-12-18T22:18:10.629Z,59.10
2022-12-18T22:20:39.549Z,56.20
2022-12-18T22:23:09.219Z,64.33
2022-12-18T22:25:40.052Z,66.47
2022-12-18T22:28:26.257Z,60.17
2022-12-18T22:30:59.379Z,59.50
2022-12-18T22:33:30.464Z,62.17
2022-12-18T22:35:59.033Z,63.90
2022-12-18T22:38:27.639Z,63.50
2022-12-18T22:40:56.721Z,63.37
2022-12-18T22:43:25.702Z,57.50
2022-12-18T22:45:54.591Z,65.40
2022-12-18T22:48:24.067Z,69.03
2022-12-18T22:50:59.694Z,65.20
2022-12-18T22:53:28.918Z,70.80
2022-12-18T22:56:02.263Z,66.90
2022-12-18T22:58:31.090Z,69.53
2022-12-18T23:00:59.775Z,63.63
2022-12-18T23:03:29.762Z,67.50
2022-12-18T23:06:07.569Z,68.60
2022-12-18T23:08:36.255Z,69.17
2022-12-18T23:11:06.744Z,67.57
2022-12-18T23:13:35.611Z,66.17
2022-12-18T23:16:07.731Z,65.63
2022-12-18T23:18:37.499Z,63.97
2022-12-18T23:21:09.256Z,69.33
2022-12-18T23:23:39.312Z,69.67
2022-12-18T23:26:10.964Z,66.70
2022-12-18T23:28:40.625Z,74.40
2022-12-18T23:31:14.614Z,65.40
2022-12-18T23:33:45.143Z,72.33
2022-12-18T23:36:17.097Z,75.43
2022-12-18T23:38:50.114Z,67.47
2022-12-18T23:41:20.664Z,66.20
2022-12-18T23:43:49.470Z,70.07
2022-12-18T23:46:21.112Z,71.43
2022-12-18T23:48:50.876Z,68.47
2022-12-18T23:51:25.752Z,72.70
2022-12-18T23:53:55.006Z,74.80
2022-12-18T23:56:24.204Z,72.50
2022-12-18T23:58:53.001Z,65.30
